sensor_id;sensor_type;location;lat;lon;timestamp;P1;durP1;ratioP1;P2;durP2;ratioP2
47021;SDS011;32779;52.264;6.154;2023-08-17T00:04:11;5.38;;;1.85;;
47021;SDS011;32779;52.264;6.154;2023-08-17T00:09:02;6.78;;;2.42;;
47021;SDS011;32779;52.264;6.154;2023-08-17T00:11:28;5.43;;;1.98;;
47021;SDS011;32779;52.264;6.154;2023-08-17T00:13:55;8.10;;;2.13;;
47021;SDS011;32779;52.264;6.154;2023-08-17T00:18:47;6.45;;;1.73;;
47021;SDS011;32779;52.264;6.154;2023-08-17T00:21:13;8.13;;;2.20;;
47021;SDS011;32779;52.264;6.154;2023-08-17T00:26:04;7.50;;;2.33;;
47021;SDS011;32779;52.264;6.154;2023-08-17T00:30:55;4.95;;;1.88;;
47021;SDS011;32779;52.264;6.154;2023-08-17T00:35:46;7.90;;;2.00;;
47021;SDS011;32779;52.264;6.154;2023-08-17T00:40:37;5.00;;;2.05;;
47021;SDS011;32779;52.264;6.154;2023-08-17T00:45:29;7.20;;;1.90;;
47021;SDS011;32779;52.264;6.154;2023-08-17T00:47:56;4.38;;;1.98;;
47021;SDS011;32779;52.264;6.154;2023-08-17T00:50:24;6.10;;;1.92;;
47021;SDS011;32779;52.264;6.154;2023-08-17T00:52:51;9.25;;;2.33;;
47021;SDS011;32779;52.264;6.154;2023-08-17T00:55:18;4.55;;;2.20;;
47021;SDS011;32779;52.264;6.154;2023-08-17T00:57:44;4.45;;;1.90;;
47021;SDS011;32779;52.264;6.154;2023-08-17T01:02:36;8.15;;;2.38;;
47021;SDS011;32779;52.264;6.154;2023-08-17T01:05:03;9.02;;;2.13;;
47021;SDS011;32779;52.264;6.154;2023-08-17T01:07:31;9.00;;;2.65;;
47021;SDS011;32779;52.264;6.154;2023-08-17T01:17:33;7.32;;;1.90;;
47021;SDS011;32779;52.264;6.154;2023-08-17T01:20:27;6.90;;;2.05;;
47021;SDS011;32779;52.264;6.154;2023-08-17T01:22:55;7.65;;;2.33;;
47021;SDS011;32779;52.264;6.154;2023-08-17T01:25:22;6.82;;;1.95;;
47021;SDS011;32779;52.264;6.154;2023-08-17T01:30:15;12.63;;;2.22;;
47021;SDS011;32779;52.264;6.154;2023-08-17T01:38:02;7.30;;;2.00;;
47021;SDS011;32779;52.264;6.154;2023-08-17T01:40:33;7.72;;;2.10;;
47021;SDS011;32779;52.264;6.154;2023-08-17T01:43:00;6.00;;;2.22;;
47021;SDS011;32779;52.264;6.154;2023-08-17T01:45:27;6.40;;;2.25;;
47021;SDS011;32779;52.264;6.154;2023-08-17T01:50:19;8.05;;;1.98;;
47021;SDS011;32779;52.264;6.154;2023-08-17T01:55:10;7.85;;;2.10;;
47021;SDS011;32779;52.264;6.154;2023-08-17T02:00:02;8.52;;;2.40;;
47021;SDS011;32779;52.264;6.154;2023-08-17T02:02:31;9.52;;;2.40;;
47021;SDS011;32779;52.264;6.154;2023-08-17T02:07:22;5.38;;;1.88;;
47021;SDS011;32779;52.264;6.154;2023-08-17T02:12:14;9.90;;;2.00;;
47021;SDS011;32779;52.264;6.154;2023-08-17T02:17:05;6.40;;;1.95;;
47021;SDS011;32779;52.264;6.154;2023-08-17T02:21:56;8.73;;;2.28;;
47021;SDS011;32779;52.264;6.154;2023-08-17T02:26:47;7.53;;;2.30;;
47021;SDS011;32779;52.264;6.154;2023-08-17T02:31:38;9.68;;;2.03;;
47021;SDS011;32779;52.264;6.154;2023-08-17T02:36:30;7.15;;;1.58;;
47021;SDS011;32779;52.264;6.154;2023-08-17T02:38:56;4.20;;;1.90;;
47021;SDS011;32779;52.264;6.154;2023-08-17T02:43:48;6.70;;;2.05;;
47021;SDS011;32779;52.264;6.154;2023-08-17T02:48:39;6.50;;;2.08;;
47021;SDS011;32779;52.264;6.154;2023-08-17T02:53:30;8.30;;;2.25;;
47021;SDS011;32779;52.264;6.154;2023-08-17T02:58:21;7.80;;;2.20;;
47021;SDS011;32779;52.264;6.154;2023-08-17T03:03:12;6.72;;;1.83;;
47021;SDS011;32779;52.264;6.154;2023-08-17T03:08:04;10.40;;;2.10;;
47021;SDS011;32779;52.264;6.154;2023-08-17T03:10:30;4.82;;;1.60;;
47021;SDS011;32779;52.264;6.154;2023-08-17T03:15:21;6.32;;;2.58;;
47021;SDS011;32779;52.264;6.154;2023-08-17T03:20:12;6.90;;;1.90;;
47021;SDS011;32779;52.264;6.154;2023-08-17T03:25:03;4.15;;;1.80;;
47021;SDS011;32779;52.264;6.154;2023-08-17T03:27:29;9.90;;;1.83;;
47021;SDS011;32779;52.264;6.154;2023-08-17T03:32:21;7.10;;;1.67;;
47021;SDS011;32779;52.264;6.154;2023-08-17T03:37:12;5.55;;;2.22;;
47021;SDS011;32779;52.264;6.154;2023-08-17T03:42:03;6.03;;;1.67;;
47021;SDS011;32779;52.264;6.154;2023-08-17T03:46:54;5.65;;;2.30;;
47021;SDS011;32779;52.264;6.154;2023-08-17T03:51:45;8.18;;;1.63;;
47021;SDS011;32779;52.264;6.154;2023-08-17T03:56:37;7.07;;;1.67;;
47021;SDS011;32779;52.264;6.154;2023-08-17T04:01:29;4.93;;;1.80;;
47021;SDS011;32779;52.264;6.154;2023-08-17T04:06:20;6.13;;;1.50;;
47021;SDS011;32779;52.264;6.154;2023-08-17T04:11:11;7.35;;;1.75;;
47021;SDS011;32779;52.264;6.154;2023-08-17T04:16:02;7.65;;;2.00;;
47021;SDS011;32779;52.264;6.154;2023-08-17T04:20:54;6.57;;;1.70;;
47021;SDS011;32779;52.264;6.154;2023-08-17T04:25:46;6.90;;;1.60;;
47021;SDS011;32779;52.264;6.154;2023-08-17T04:28:11;4.45;;;1.30;;
47021;SDS011;32779;52.264;6.154;2023-08-17T04:33:03;3.92;;;2.15;;
47021;SDS011;32779;52.264;6.154;2023-08-17T04:35:29;7.30;;;2.10;;
47021;SDS011;32779;52.264;6.154;2023-08-17T04:40:20;5.20;;;1.20;;
47021;SDS011;32779;52.264;6.154;2023-08-17T04:45:11;5.85;;;1.52;;
47021;SDS011;32779;52.264;6.154;2023-08-17T04:47:37;4.07;;;1.65;;
47021;SDS011;32779;52.264;6.154;2023-08-17T04:52:29;7.95;;;2.35;;
47021;SDS011;32779;52.264;6.154;2023-08-17T04:57:20;5.68;;;1.77;;
47021;SDS011;32779;52.264;6.154;2023-08-17T05:02:11;5.38;;;1.60;;
47021;SDS011;32779;52.264;6.154;2023-08-17T05:07:04;4.03;;;1.47;;
47021;SDS011;32779;52.264;6.154;2023-08-17T05:11:55;5.72;;;1.52;;
47021;SDS011;32779;52.264;6.154;2023-08-17T05:16:46;5.28;;;1.55;;
47021;SDS011;32779;52.264;6.154;2023-08-17T05:21:37;10.73;;;1.85;;
47021;SDS011;32779;52.264;6.154;2023-08-17T05:26:29;5.47;;;1.42;;
47021;SDS011;32779;52.264;6.154;2023-08-17T05:31:20;6.72;;;2.40;;
47021;SDS011;32779;52.264;6.154;2023-08-17T05:36:12;3.85;;;1.80;;
47021;SDS011;32779;52.264;6.154;2023-08-17T05:38:38;3.80;;;1.50;;
47021;SDS011;32779;52.264;6.154;2023-08-17T05:43:29;4.22;;;1.70;;
47021;SDS011;32779;52.264;6.154;2023-08-17T05:48:22;6.60;;;1.70;;
47021;SDS011;32779;52.264;6.154;2023-08-17T05:50:48;7.93;;;1.73;;
47021;SDS011;32779;52.264;6.154;2023-08-17T05:55:39;5.88;;;1.75;;
47021;SDS011;32779;52.264;6.154;2023-08-17T06:00:30;8.93;;;2.00;;
47021;SDS011;32779;52.264;6.154;2023-08-17T06:05:26;5.75;;;1.67;;
47021;SDS011;32779;52.264;6.154;2023-08-17T06:07:53;6.78;;;2.30;;
47021;SDS011;32779;52.264;6.154;2023-08-17T06:12:45;10.00;;;1.90;;
47021;SDS011;32779;52.264;6.154;2023-08-17T06:17:36;8.15;;;2.03;;
47021;SDS011;32779;52.264;6.154;2023-08-17T06:22:28;6.65;;;1.80;;
47021;SDS011;32779;52.264;6.154;2023-08-17T06:27:19;7.97;;;2.72;;
47021;SDS011;32779;52.264;6.154;2023-08-17T06:32:10;5.35;;;1.80;;
47021;SDS011;32779;52.264;6.154;2023-08-17T06:37:02;6.47;;;2.00;;
47021;SDS011;32779;52.264;6.154;2023-08-17T06:39:28;7.10;;;1.92;;
47021;SDS011;32779;52.264;6.154;2023-08-17T06:44:20;4.95;;;1.90;;
47021;SDS011;32779;52.264;6.154;2023-08-17T06:46:45;7.63;;;2.47;;
47021;SDS011;32779;52.264;6.154;2023-08-17T06:51:37;7.20;;;1.95;;
47021;SDS011;32779;52.264;6.154;2023-08-17T06:54:04;4.40;;;1.73;;
47021;SDS011;32779;52.264;6.154;2023-08-17T06:56:30;9.00;;;2.05;;
47021;SDS011;32779;52.264;6.154;2023-08-17T07:01:21;7.18;;;1.95;;
47021;SDS011;32779;52.264;6.154;2023-08-17T07:06:13;8.48;;;2.10;;
47021;SDS011;32779;52.264;6.154;2023-08-17T07:11:04;10.32;;;2.20;;
47021;SDS011;32779;52.264;6.154;2023-08-17T07:13:31;6.80;;;2.35;;
47021;SDS011;32779;52.264;6.154;2023-08-17T07:18:22;6.85;;;2.05;;
47021;SDS011;32779;52.264;6.154;2023-08-17T07:23:14;7.88;;;1.50;;
47021;SDS011;32779;52.264;6.154;2023-08-17T07:28:05;4.43;;;1.65;;
47021;SDS011;32779;52.264;6.154;2023-08-17T07:30:31;4.15;;;1.60;;
47021;SDS011;32779;52.264;6.154;2023-08-17T07:35:22;8.82;;;1.60;;
47021;SDS011;32779;52.264;6.154;2023-08-17T07:37:48;4.80;;;1.85;;
47021;SDS011;32779;52.264;6.154;2023-08-17T07:40:14;4.57;;;1.30;;
47021;SDS011;32779;52.264;6.154;2023-08-17T07:45:05;7.35;;;1.58;;
47021;SDS011;32779;52.264;6.154;2023-08-17T07:47:33;6.68;;;1.60;;
47021;SDS011;32779;52.264;6.154;2023-08-17T07:50:01;4.63;;;1.45;;
47021;SDS011;32779;52.264;6.154;2023-08-17T07:54:53;4.47;;;1.58;;
47021;SDS011;32779;52.264;6.154;2023-08-17T07:57:19;4.88;;;1.45;;
47021;SDS011;32779;52.264;6.154;2023-08-17T08:02:10;4.18;;;1.52;;
47021;SDS011;32779;52.264;6.154;2023-08-17T08:07:01;10.15;;;2.00;;
47021;SDS011;32779;52.264;6.154;2023-08-17T08:11:52;4.75;;;1.40;;
47021;SDS011;32779;52.264;6.154;2023-08-17T08:16:43;4.97;;;1.50;;
47021;SDS011;32779;52.264;6.154;2023-08-17T08:19:09;6.22;;;2.00;;
47021;SDS011;32779;52.264;6.154;2023-08-17T08:21:35;8.73;;;2.05;;
47021;SDS011;32779;52.264;6.154;2023-08-17T08:24:00;7.03;;;1.73;;
47021;SDS011;32779;52.264;6.154;2023-08-17T08:26:26;6.70;;;1.60;;
47021;SDS011;32779;52.264;6.154;2023-08-17T08:31:17;5.40;;;1.80;;
47021;SDS011;32779;52.264;6.154;2023-08-17T08:33:43;5.78;;;1.90;;
47021;SDS011;32779;52.264;6.154;2023-08-17T08:36:08;7.28;;;2.00;;
47021;SDS011;32779;52.264;6.154;2023-08-17T08:38:34;3.40;;;1.42;;
47021;SDS011;32779;52.264;6.154;2023-08-17T08:41:00;5.93;;;1.80;;
47021;SDS011;32779;52.264;6.154;2023-08-17T08:43:27;9.02;;;1.77;;
47021;SDS011;32779;52.264;6.154;2023-08-17T08:48:20;9.95;;;2.50;;
47021;SDS011;32779;52.264;6.154;2023-08-17T08:50:48;6.93;;;2.20;;
47021;SDS011;32779;52.264;6.154;2023-08-17T08:53:17;11.40;;;2.50;;
47021;SDS011;32779;52.264;6.154;2023-08-17T08:55:59;7.00;;;2.50;;
47021;SDS011;32779;52.264;6.154;2023-08-17T08:58:26;10.63;;;2.70;;
47021;SDS011;32779;52.264;6.154;2023-08-17T09:00:54;12.05;;;2.80;;
47021;SDS011;32779;52.264;6.154;2023-08-17T09:03:22;11.25;;;3.10;;
47021;SDS011;32779;52.264;6.154;2023-08-17T09:05:49;8.43;;;3.38;;
47021;SDS011;32779;52.264;6.154;2023-08-17T09:08:27;11.40;;;2.97;;
47021;SDS011;32779;52.264;6.154;2023-08-17T09:10:54;11.07;;;3.13;;
47021;SDS011;32779;52.264;6.154;2023-08-17T09:13:20;12.02;;;3.83;;
47021;SDS011;32779;52.264;6.154;2023-08-17T09:18:12;13.07;;;3.28;;
47021;SDS011;32779;52.264;6.154;2023-08-17T09:20:41;10.85;;;2.83;;
47021;SDS011;32779;52.264;6.154;2023-08-17T09:23:20;8.85;;;2.90;;
47021;SDS011;32779;52.264;6.154;2023-08-17T09:25:47;9.80;;;3.40;;
47021;SDS011;32779;52.264;6.154;2023-08-17T09:28:15;12.35;;;2.90;;
47021;SDS011;32779;52.264;6.154;2023-08-17T09:30:58;6.80;;;3.22;;
47021;SDS011;32779;52.264;6.154;2023-08-17T09:33:26;11.75;;;3.20;;
47021;SDS011;32779;52.264;6.154;2023-08-17T09:35:54;8.75;;;3.17;;
47021;SDS011;32779;52.264;6.154;2023-08-17T09:38:20;8.98;;;3.00;;
47021;SDS011;32779;52.264;6.154;2023-08-17T09:43:13;10.50;;;3.10;;
47021;SDS011;32779;52.264;6.154;2023-08-17T09:45:40;7.70;;;3.05;;
47021;SDS011;32779;52.264;6.154;2023-08-17T09:48:08;9.98;;;3.00;;
47021;SDS011;32779;52.264;6.154;2023-08-17T09:53:00;8.43;;;2.80;;
47021;SDS011;32779;52.264;6.154;2023-08-17T09:55:29;9.20;;;3.65;;
47021;SDS011;32779;52.264;6.154;2023-08-17T09:57:57;7.45;;;3.03;;
47021;SDS011;32779;52.264;6.154;2023-08-17T10:02:49;8.30;;;2.90;;
47021;SDS011;32779;52.264;6.154;2023-08-17T10:05:19;8.52;;;3.00;;
47021;SDS011;32779;52.264;6.154;2023-08-17T10:07:53;6.57;;;3.05;;
47021;SDS011;32779;52.264;6.154;2023-08-17T10:13:00;7.90;;;2.75;;
47021;SDS011;32779;52.264;6.154;2023-08-17T10:15:41;6.55;;;2.50;;
47021;SDS011;32779;52.264;6.154;2023-08-17T10:18:26;9.23;;;3.15;;
47021;SDS011;32779;52.264;6.154;2023-08-17T10:21:05;7.43;;;2.75;;
47021;SDS011;32779;52.264;6.154;2023-08-17T10:23:36;7.63;;;2.63;;
47021;SDS011;32779;52.264;6.154;2023-08-17T10:26:05;13.63;;;2.88;;
47021;SDS011;32779;52.264;6.154;2023-08-17T10:28:33;9.60;;;3.22;;
47021;SDS011;32779;52.264;6.154;2023-08-17T10:33:25;11.23;;;3.15;;
47021;SDS011;32779;52.264;6.154;2023-08-17T10:35:52;6.72;;;2.70;;
47021;SDS011;32779;52.264;6.154;2023-08-17T10:38:19;6.05;;;2.83;;
47021;SDS011;32779;52.264;6.154;2023-08-17T10:43:33;7.18;;;2.38;;
47021;SDS011;32779;52.264;6.154;2023-08-17T10:49:04;8.65;;;2.95;;
47021;SDS011;32779;52.264;6.154;2023-08-17T10:51:31;9.43;;;2.65;;
47021;SDS011;32779;52.264;6.154;2023-08-17T10:56:29;6.47;;;2.58;;
47021;SDS011;32779;52.264;6.154;2023-08-17T10:58:58;5.72;;;2.55;;
47021;SDS011;32779;52.264;6.154;2023-08-17T11:01:35;9.10;;;2.55;;
47021;SDS011;32779;52.264;6.154;2023-08-17T11:04:10;6.25;;;2.60;;
47021;SDS011;32779;52.264;6.154;2023-08-17T11:06:43;9.30;;;2.70;;
47021;SDS011;32779;52.264;6.154;2023-08-17T11:09:09;8.35;;;2.42;;
47021;SDS011;32779;52.264;6.154;2023-08-17T11:14:00;9.95;;;2.65;;
47021;SDS011;32779;52.264;6.154;2023-08-17T11:16:26;12.98;;;2.83;;
47021;SDS011;32779;52.264;6.154;2023-08-17T11:18:52;7.55;;;2.75;;
47021;SDS011;32779;52.264;6.154;2023-08-17T11:21:18;6.15;;;2.30;;
47021;SDS011;32779;52.264;6.154;2023-08-17T11:23:44;5.25;;;2.30;;
47021;SDS011;32779;52.264;6.154;2023-08-17T11:26:10;4.18;;;2.35;;
47021;SDS011;32779;52.264;6.154;2023-08-17T11:28:36;5.25;;;2.13;;
47021;SDS011;32779;52.264;6.154;2023-08-17T11:31:04;6.53;;;2.80;;
47021;SDS011;32779;52.264;6.154;2023-08-17T11:33:34;3.65;;;2.63;;
47021;SDS011;32779;52.264;6.154;2023-08-17T11:36:03;5.32;;;2.90;;
47021;SDS011;32779;52.264;6.154;2023-08-17T11:38:39;9.85;;;3.38;;
47021;SDS011;32779;52.264;6.154;2023-08-17T11:41:06;8.07;;;2.97;;
47021;SDS011;32779;52.264;6.154;2023-08-17T11:43:33;6.65;;;2.80;;
47021;SDS011;32779;52.264;6.154;2023-08-17T11:46:00;5.13;;;2.78;;
47021;SDS011;32779;52.264;6.154;2023-08-17T11:48:26;10.10;;;2.80;;
47021;SDS011;32779;52.264;6.154;2023-08-17T11:50:53;5.93;;;2.60;;
47021;SDS011;32779;52.264;6.154;2023-08-17T11:53:19;7.70;;;2.83;;
47021;SDS011;32779;52.264;6.154;2023-08-17T11:55:45;5.75;;;2.70;;
47021;SDS011;32779;52.264;6.154;2023-08-17T11:58:11;7.18;;;2.92;;
47021;SDS011;32779;52.264;6.154;2023-08-17T12:00:39;6.38;;;2.80;;
47021;SDS011;32779;52.264;6.154;2023-08-17T12:03:12;7.00;;;3.28;;
47021;SDS011;32779;52.264;6.154;2023-08-17T12:05:38;3.67;;;2.78;;
47021;SDS011;32779;52.264;6.154;2023-08-17T12:08:04;6.88;;;3.20;;
47021;SDS011;32779;52.264;6.154;2023-08-17T12:10:32;7.93;;;3.13;;
47021;SDS011;32779;52.264;6.154;2023-08-17T12:12:58;7.45;;;3.33;;
47021;SDS011;32779;52.264;6.154;2023-08-17T12:15:35;8.52;;;3.05;;
47021;SDS011;32779;52.264;6.154;2023-08-17T12:18:04;6.35;;;3.47;;
47021;SDS011;32779;52.264;6.154;2023-08-17T12:20:30;7.97;;;3.03;;
47021;SDS011;32779;52.264;6.154;2023-08-17T12:22:58;7.38;;;2.95;;
47021;SDS011;32779;52.264;6.154;2023-08-17T12:25:24;7.40;;;3.67;;
47021;SDS011;32779;52.264;6.154;2023-08-17T12:27:50;6.80;;;3.55;;
47021;SDS011;32779;52.264;6.154;2023-08-17T12:30:25;8.77;;;3.50;;
47021;SDS011;32779;52.264;6.154;2023-08-17T12:32:52;4.88;;;3.30;;
47021;SDS011;32779;52.264;6.154;2023-08-17T12:35:18;5.47;;;3.20;;
47021;SDS011;32779;52.264;6.154;2023-08-17T12:37:46;4.20;;;3.20;;
47021;SDS011;32779;52.264;6.154;2023-08-17T12:40:12;5.13;;;2.95;;
47021;SDS011;32779;52.264;6.154;2023-08-17T12:42:38;10.23;;;3.78;;
47021;SDS011;32779;52.264;6.154;2023-08-17T12:45:04;5.82;;;3.00;;
47021;SDS011;32779;52.264;6.154;2023-08-17T12:47:29;6.55;;;3.33;;
47021;SDS011;32779;52.264;6.154;2023-08-17T12:49:55;5.38;;;3.28;;
47021;SDS011;32779;52.264;6.154;2023-08-17T12:52:21;4.32;;;3.10;;
47021;SDS011;32779;52.264;6.154;2023-08-17T12:54:46;8.45;;;3.40;;
47021;SDS011;32779;52.264;6.154;2023-08-17T12:57:12;8.57;;;3.72;;
47021;SDS011;32779;52.264;6.154;2023-08-17T12:59:38;8.02;;;3.25;;
47021;SDS011;32779;52.264;6.154;2023-08-17T13:02:03;6.25;;;3.72;;
47021;SDS011;32779;52.264;6.154;2023-08-17T13:04:29;7.25;;;2.90;;
47021;SDS011;32779;52.264;6.154;2023-08-17T13:06:54;6.65;;;3.25;;
47021;SDS011;32779;52.264;6.154;2023-08-17T13:09:20;6.20;;;3.50;;
47021;SDS011;32779;52.264;6.154;2023-08-17T13:11:46;4.90;;;3.00;;
47021;SDS011;32779;52.264;6.154;2023-08-17T13:14:12;5.95;;;3.50;;
47021;SDS011;32779;52.264;6.154;2023-08-17T13:16:39;8.23;;;3.47;;
47021;SDS011;32779;52.264;6.154;2023-08-17T13:19:05;4.90;;;3.60;;
47021;SDS011;32779;52.264;6.154;2023-08-17T13:21:30;6.25;;;3.33;;
47021;SDS011;32779;52.264;6.154;2023-08-17T13:23:59;6.93;;;3.78;;
47021;SDS011;32779;52.264;6.154;2023-08-17T13:26:28;8.93;;;3.95;;
47021;SDS011;32779;52.264;6.154;2023-08-17T13:28:55;6.43;;;3.85;;
47021;SDS011;32779;52.264;6.154;2023-08-17T13:31:20;6.00;;;3.78;;
47021;SDS011;32779;52.264;6.154;2023-08-17T13:33:49;8.02;;;4.03;;
47021;SDS011;32779;52.264;6.154;2023-08-17T13:36:14;7.43;;;3.97;;
47021;SDS011;32779;52.264;6.154;2023-08-17T13:38:40;7.25;;;4.05;;
47021;SDS011;32779;52.264;6.154;2023-08-17T13:41:05;11.35;;;4.00;;
47021;SDS011;32779;52.264;6.154;2023-08-17T13:43:31;6.72;;;4.07;;
47021;SDS011;32779;52.264;6.154;2023-08-17T13:45:57;8.10;;;4.18;;
47021;SDS011;32779;52.264;6.154;2023-08-17T13:48:22;7.75;;;4.13;;
47021;SDS011;32779;52.264;6.154;2023-08-17T13:50:48;6.55;;;4.38;;
47021;SDS011;32779;52.264;6.154;2023-08-17T13:53:14;10.68;;;3.95;;
47021;SDS011;32779;52.264;6.154;2023-08-17T13:55:39;7.07;;;4.90;;
47021;SDS011;32779;52.264;6.154;2023-08-17T13:58:05;6.90;;;4.28;;
47021;SDS011;32779;52.264;6.154;2023-08-17T14:00:31;8.50;;;4.28;;
47021;SDS011;32779;52.264;6.154;2023-08-17T14:02:57;6.28;;;4.38;;
47021;SDS011;32779;52.264;6.154;2023-08-17T14:05:22;5.43;;;3.90;;
47021;SDS011;32779;52.264;6.154;2023-08-17T14:07:48;8.23;;;4.15;;
47021;SDS011;32779;52.264;6.154;2023-08-17T14:10:14;5.93;;;3.78;;
47021;SDS011;32779;52.264;6.154;2023-08-17T14:12:39;6.03;;;4.35;;
47021;SDS011;32779;52.264;6.154;2023-08-17T14:15:05;7.97;;;4.57;;
47021;SDS011;32779;52.264;6.154;2023-08-17T14:17:31;8.93;;;4.57;;
47021;SDS011;32779;52.264;6.154;2023-08-17T14:19:57;6.65;;;4.00;;
47021;SDS011;32779;52.264;6.154;2023-08-17T14:22:23;10.48;;;4.75;;
47021;SDS011;32779;52.264;6.154;2023-08-17T14:24:48;5.90;;;3.92;;
47021;SDS011;32779;52.264;6.154;2023-08-17T14:27:14;5.72;;;3.65;;
47021;SDS011;32779;52.264;6.154;2023-08-17T14:29:39;5.30;;;4.18;;
47021;SDS011;32779;52.264;6.154;2023-08-17T14:32:07;7.70;;;4.10;;
47021;SDS011;32779;52.264;6.154;2023-08-17T14:34:33;5.03;;;3.80;;
47021;SDS011;32779;52.264;6.154;2023-08-17T14:36:59;6.65;;;4.13;;
47021;SDS011;32779;52.264;6.154;2023-08-17T14:39:24;7.70;;;4.80;;
47021;SDS011;32779;52.264;6.154;2023-08-17T14:41:50;7.95;;;4.53;;
47021;SDS011;32779;52.264;6.154;2023-08-17T14:44:17;6.25;;;4.55;;
47021;SDS011;32779;52.264;6.154;2023-08-17T14:46:43;7.80;;;4.97;;
47021;SDS011;32779;52.264;6.154;2023-08-17T14:49:09;10.43;;;5.28;;
47021;SDS011;32779;52.264;6.154;2023-08-17T14:51:38;9.25;;;5.40;;
47021;SDS011;32779;52.264;6.154;2023-08-17T14:54:05;7.15;;;5.00;;
47021;SDS011;32779;52.264;6.154;2023-08-17T14:56:33;9.52;;;5.13;;
47021;SDS011;32779;52.264;6.154;2023-08-17T14:58:59;7.97;;;4.97;;
47021;SDS011;32779;52.264;6.154;2023-08-17T15:01:25;8.93;;;5.38;;
47021;SDS011;32779;52.264;6.154;2023-08-17T15:03:50;11.02;;;5.60;;
47021;SDS011;32779;52.264;6.154;2023-08-17T15:06:16;9.43;;;5.25;;
47021;SDS011;32779;52.264;6.154;2023-08-17T15:08:42;6.47;;;5.40;;
47021;SDS011;32779;52.264;6.154;2023-08-17T15:11:07;8.38;;;7.15;;
47021;SDS011;32779;52.264;6.154;2023-08-17T15:13:35;10.05;;;7.50;;
47021;SDS011;32779;52.264;6.154;2023-08-17T15:16:01;10.45;;;6.93;;
47021;SDS011;32779;52.264;6.154;2023-08-17T15:18:27;10.63;;;6.93;;
47021;SDS011;32779;52.264;6.154;2023-08-17T15:20:53;10.63;;;6.47;;
47021;SDS011;32779;52.264;6.154;2023-08-17T15:23:21;10.35;;;7.30;;
47021;SDS011;32779;52.264;6.154;2023-08-17T15:25:47;8.93;;;7.10;;
47021;SDS011;32779;52.264;6.154;2023-08-17T15:28:13;9.93;;;6.95;;
47021;SDS011;32779;52.264;6.154;2023-08-17T15:30:38;11.32;;;6.53;;
47021;SDS011;32779;52.264;6.154;2023-08-17T15:33:04;7.40;;;6.15;;
47021;SDS011;32779;52.264;6.154;2023-08-17T15:35:30;9.85;;;6.30;;
47021;SDS011;32779;52.264;6.154;2023-08-17T15:37:55;8.85;;;6.63;;
47021;SDS011;32779;52.264;6.154;2023-08-17T15:40:21;8.48;;;6.30;;
47021;SDS011;32779;52.264;6.154;2023-08-17T15:42:47;7.57;;;6.13;;
47021;SDS011;32779;52.264;6.154;2023-08-17T15:45:12;9.35;;;6.60;;
47021;SDS011;32779;52.264;6.154;2023-08-17T15:47:38;7.85;;;6.88;;
47021;SDS011;32779;52.264;6.154;2023-08-17T15:50:04;8.73;;;6.90;;
47021;SDS011;32779;52.264;6.154;2023-08-17T15:52:30;10.82;;;7.57;;
47021;SDS011;32779;52.264;6.154;2023-08-17T15:54:55;13.98;;;8.13;;
47021;SDS011;32779;52.264;6.154;2023-08-17T15:57:21;9.88;;;7.30;;
47021;SDS011;32779;52.264;6.154;2023-08-17T15:59:47;9.18;;;7.07;;
47021;SDS011;32779;52.264;6.154;2023-08-17T16:02:16;11.05;;;7.57;;
47021;SDS011;32779;52.264;6.154;2023-08-17T16:04:42;11.27;;;8.50;;
47021;SDS011;32779;52.264;6.154;2023-08-17T16:07:08;11.15;;;8.50;;
47021;SDS011;32779;52.264;6.154;2023-08-17T16:09:33;8.80;;;7.88;;
47021;SDS011;32779;52.264;6.154;2023-08-17T16:11:59;11.35;;;8.10;;
47021;SDS011;32779;52.264;6.154;2023-08-17T16:14:25;9.88;;;8.23;;
47021;SDS011;32779;52.264;6.154;2023-08-17T16:16:51;10.20;;;9.02;;
47021;SDS011;32779;52.264;6.154;2023-08-17T16:19:17;13.82;;;8.85;;
47021;SDS011;32779;52.264;6.154;2023-08-17T16:21:43;11.63;;;8.85;;
47021;SDS011;32779;52.264;6.154;2023-08-17T16:24:08;11.73;;;8.85;;
47021;SDS011;32779;52.264;6.154;2023-08-17T16:26:34;9.95;;;7.82;;
47021;SDS011;32779;52.264;6.154;2023-08-17T16:29:00;13.75;;;8.65;;
47021;SDS011;32779;52.264;6.154;2023-08-17T16:31:26;10.95;;;8.88;;
47021;SDS011;32779;52.264;6.154;2023-08-17T16:33:51;14.60;;;9.50;;
47021;SDS011;32779;52.264;6.154;2023-08-17T16:36:17;11.80;;;9.10;;
47021;SDS011;32779;52.264;6.154;2023-08-17T16:38:43;11.23;;;8.70;;
47021;SDS011;32779;52.264;6.154;2023-08-17T16:41:08;12.00;;;9.48;;
47021;SDS011;32779;52.264;6.154;2023-08-17T16:43:34;11.48;;;8.38;;
47021;SDS011;32779;52.264;6.154;2023-08-17T16:45:59;11.48;;;8.68;;
47021;SDS011;32779;52.264;6.154;2023-08-17T16:48:25;11.80;;;9.25;;
47021;SDS011;32779;52.264;6.154;2023-08-17T16:50:51;11.45;;;8.32;;
47021;SDS011;32779;52.264;6.154;2023-08-17T16:53:17;10.85;;;8.27;;
47021;SDS011;32779;52.264;6.154;2023-08-17T16:55:42;12.43;;;9.05;;
47021;SDS011;32779;52.264;6.154;2023-08-17T16:58:08;12.05;;;8.27;;
47021;SDS011;32779;52.264;6.154;2023-08-17T17:00:35;12.95;;;8.40;;
47021;SDS011;32779;52.264;6.154;2023-08-17T17:03:01;11.82;;;8.90;;
47021;SDS011;32779;52.264;6.154;2023-08-17T17:05:27;13.02;;;9.07;;
47021;SDS011;32779;52.264;6.154;2023-08-17T17:07:52;13.27;;;9.23;;
47021;SDS011;32779;52.264;6.154;2023-08-17T17:10:18;12.27;;;8.80;;
47021;SDS011;32779;52.264;6.154;2023-08-17T17:12:45;11.10;;;7.85;;
47021;SDS011;32779;52.264;6.154;2023-08-17T17:15:11;10.13;;;7.38;;
47021;SDS011;32779;52.264;6.154;2023-08-17T17:17:36;10.63;;;7.80;;
47021;SDS011;32779;52.264;6.154;2023-08-17T17:20:03;13.90;;;8.43;;
47021;SDS011;32779;52.264;6.154;2023-08-17T17:22:30;11.43;;;8.80;;
47021;SDS011;32779;52.264;6.154;2023-08-17T17:24:55;13.07;;;8.48;;
47021;SDS011;32779;52.264;6.154;2023-08-17T17:27:21;10.40;;;8.20;;
47021;SDS011;32779;52.264;6.154;2023-08-17T17:29:47;10.02;;;7.55;;
47021;SDS011;32779;52.264;6.154;2023-08-17T17:32:13;9.90;;;7.80;;
47021;SDS011;32779;52.264;6.154;2023-08-17T17:34:39;11.95;;;7.18;;
47021;SDS011;32779;52.264;6.154;2023-08-17T17:37:04;11.30;;;7.10;;
47021;SDS011;32779;52.264;6.154;2023-08-17T17:39:30;11.02;;;7.20;;
47021;SDS011;32779;52.264;6.154;2023-08-17T17:41:57;9.93;;;6.60;;
47021;SDS011;32779;52.264;6.154;2023-08-17T17:44:23;8.73;;;6.80;;
47021;SDS011;32779;52.264;6.154;2023-08-17T17:46:49;10.32;;;6.88;;
47021;SDS011;32779;52.264;6.154;2023-08-17T17:49:14;9.00;;;6.47;;
47021;SDS011;32779;52.264;6.154;2023-08-17T17:51:40;9.07;;;6.38;;
47021;SDS011;32779;52.264;6.154;2023-08-17T17:54:06;6.78;;;6.07;;
47021;SDS011;32779;52.264;6.154;2023-08-17T17:56:41;8.75;;;6.22;;
47021;SDS011;32779;52.264;6.154;2023-08-17T17:59:08;7.53;;;5.60;;
47021;SDS011;32779;52.264;6.154;2023-08-17T18:01:34;8.68;;;5.70;;
47021;SDS011;32779;52.264;6.154;2023-08-17T18:03:59;8.73;;;5.93;;
47021;SDS011;32779;52.264;6.154;2023-08-17T18:06:25;7.53;;;5.50;;
47021;SDS011;32779;52.264;6.154;2023-08-17T18:08:51;6.95;;;5.35;;
47021;SDS011;32779;52.264;6.154;2023-08-17T18:11:17;8.23;;;5.60;;
47021;SDS011;32779;52.264;6.154;2023-08-17T18:13:42;6.22;;;5.45;;
47021;SDS011;32779;52.264;6.154;2023-08-17T18:16:08;8.77;;;6.57;;
47021;SDS011;32779;52.264;6.154;2023-08-17T18:18:34;7.32;;;6.38;;
47021;SDS011;32779;52.264;6.154;2023-08-17T18:21:08;7.00;;;6.38;;
47021;SDS011;32779;52.264;6.154;2023-08-17T18:23:33;8.13;;;6.65;;
47021;SDS011;32779;52.264;6.154;2023-08-17T18:25:59;7.88;;;6.22;;
47021;SDS011;32779;52.264;6.154;2023-08-17T18:28:34;7.18;;;6.38;;
47021;SDS011;32779;52.264;6.154;2023-08-17T18:31:00;6.88;;;5.72;;
47021;SDS011;32779;52.264;6.154;2023-08-17T18:33:34;6.72;;;5.68;;
47021;SDS011;32779;52.264;6.154;2023-08-17T18:36:01;8.70;;;6.05;;
47021;SDS011;32779;52.264;6.154;2023-08-17T18:38:33;6.32;;;5.38;;
47021;SDS011;32779;52.264;6.154;2023-08-17T18:41:05;5.95;;;4.82;;